sensor_id;sensor_type;location;lat;lon;timestamp;P1;durP1;ratioP1;P2;durP2;ratioP2
1164;SDS011;571;50.930;6.926;2022-12-19T03:47:17;37.53;;;21.47;;
1164;SDS011;571;50.930;6.926;2022-12-19T03:49:50;37.40;;;24.20;;
1164;SDS011;571;50.930;6.926;2022-12-19T03:52:25;38.10;;;25.20;;
1164;SDS011;571;50.930;6.926;2022-12-19T03:55:02;38.93;;;23.07;;
1164;SDS011;571;50.930;6.926;2022-12-19T03:57:39;40.93;;;24.03;;
1164;SDS011;571;50.930;6.926;2022-12-19T04:00:10;40.50;;;26.67;;
1164;SDS011;571;50.930;6.926;2022-12-19T04:02:41;38.40;;;24.73;;
1164;SDS011;571;50.930;6.926;2022-12-19T04:05:11;36.33;;;22.93;;
1164;SDS011;571;50.930;6.926;2022-12-19T04:07:42;40.43;;;25.83;;
1164;SDS011;571;50.930;6.926;2022-12-19T04:10:11;41.13;;;24.60;;
1164;SDS011;571;50.930;6.926;2022-12-19T04:12:42;42.53;;;24.40;;
1164;SDS011;571;50.930;6.926;2022-12-19T04:15:13;31.80;;;21.13;;
1164;SDS011;571;50.930;6.926;2022-12-19T04:17:43;34.50;;;23.90;;
1164;SDS011;571;50.930;6.926;2022-12-19T04:20:13;36.20;;;24.07;;
1164;SDS011;571;50.930;6.926;2022-12-19T04:22:42;35.30;;;25.60;;
1164;SDS011;571;50.930;6.926;2022-12-19T04:25:18;38.03;;;22.57;;
1164;SDS011;571;50.930;6.926;2022-12-19T04:27:48;43.10;;;25.43;;
1164;SDS011;571;50.930;6.926;2022-12-19T04:30:19;37.03;;;23.40;;
1164;SDS011;571;50.930;6.926;2022-12-19T04:32:47;43.17;;;25.00;;
1164;SDS011;571;50.930;6.926;2022-12-19T04:35:15;32.20;;;21.40;;
1164;SDS011;571;50.930;6.926;2022-12-19T04:37:42;34.37;;;22.93;;
1164;SDS011;571;50.930;6.926;2022-12-19T04:40:09;34.10;;;24.20;;
1164;SDS011;571;50.930;6.926;2022-12-19T04:42:37;36.13;;;25.87;;
1164;SDS011;571;50.930;6.926;2022-12-19T04:45:05;24.93;;;18.30;;
1164;SDS011;571;50.930;6.926;2022-12-19T04:47:32;30.97;;;15.60;;
1164;SDS011;571;50.930;6.926;2022-12-19T04:50:00;37.90;;;22.80;;
1164;SDS011;571;50.930;6.926;2022-12-19T04:52:27;44.90;;;26.87;;
1164;SDS011;571;50.930;6.926;2022-12-19T04:54:54;31.90;;;23.03;;
1164;SDS011;571;50.930;6.926;2022-12-19T04:57:21;39.30;;;24.00;;
1164;SDS011;571;50.930;6.926;2022-12-19T04:59:47;36.90;;;22.60;;
1164;SDS011;571;50.930;6.926;2022-12-19T05:02:15;37.73;;;24.27;;
1164;SDS011;571;50.930;6.926;2022-12-19T05:04:41;36.93;;;23.90;;
1164;SDS011;571;50.930;6.926;2022-12-19T05:07:10;39.47;;;23.37;;
1164;SDS011;571;50.930;6.926;2022-12-19T05:09:38;35.07;;;24.73;;
1164;SDS011;571;50.930;6.926;2022-12-19T05:12:05;36.07;;;22.90;;
1164;SDS011;571;50.930;6.926;2022-12-19T05:14:34;39.07;;;23.50;;
1164;SDS011;571;50.930;6.926;2022-12-19T05:17:01;38.83;;;26.03;;
1164;SDS011;571;50.930;6.926;2022-12-19T05:19:28;35.83;;;22.47;;
1164;SDS011;571;50.930;6.926;2022-12-19T05:21:55;42.77;;;25.33;;
1164;SDS011;571;50.930;6.926;2022-12-19T05:24:23;39.77;;;23.80;;
1164;SDS011;571;50.930;6.926;2022-12-19T05:26:52;40.80;;;25.10;;
1164;SDS011;571;50.930;6.926;2022-12-19T05:29:19;40.90;;;26.43;;
1164;SDS011;571;50.930;6.926;2022-12-19T05:31:46;34.27;;;23.00;;
1164;SDS011;571;50.930;6.926;2022-12-19T05:34:13;32.83;;;24.07;;
1164;SDS011;571;50.930;6.926;2022-12-19T05:36:39;35.67;;;22.30;;
1164;SDS011;571;50.930;6.926;2022-12-19T05:39:06;46.87;;;27.73;;
1164;SDS011;571;50.930;6.926;2022-12-19T05:41:34;39.13;;;24.20;;
1164;SDS011;571;50.930;6.926;2022-12-19T05:44:01;35.33;;;23.80;;
1164;SDS011;571;50.930;6.926;2022-12-19T05:46:28;40.50;;;23.73;;
1164;SDS011;571;50.930;6.926;2022-12-19T05:48:55;38.93;;;25.50;;
1164;SDS011;571;50.930;6.926;2022-12-19T05:51:23;40.70;;;25.53;;
1164;SDS011;571;50.930;6.926;2022-12-19T05:53:50;38.80;;;26.97;;
1164;SDS011;571;50.930;6.926;2022-12-19T05:56:17;39.77;;;25.17;;
1164;SDS011;571;50.930;6.926;2022-12-19T05:58:47;35.97;;;23.37;;
1164;SDS011;571;50.930;6.926;2022-12-19T06:01:15;40.03;;;25.37;;
1164;SDS011;571;50.930;6.926;2022-12-19T06:03:44;37.80;;;25.37;;
1164;SDS011;571;50.930;6.926;2022-12-19T06:06:11;38.33;;;23.47;;
1164;SDS011;571;50.930;6.926;2022-12-19T06:08:39;35.03;;;24.77;;
1164;SDS011;571;50.930;6.926;2022-12-19T06:11:06;42.83;;;24.73;;
1164;SDS011;571;50.930;6.926;2022-12-19T06:13:34;38.87;;;23.50;;
1164;SDS011;571;50.930;6.926;2022-12-19T06:16:04;35.70;;;24.50;;
1164;SDS011;571;50.930;6.926;2022-12-19T06:18:33;38.43;;;24.77;;
1164;SDS011;571;50.930;6.926;2022-12-19T06:21:00;32.50;;;23.67;;
1164;SDS011;571;50.930;6.926;2022-12-19T06:23:28;39.67;;;25.03;;
1164;SDS011;571;50.930;6.926;2022-12-19T06:25:57;40.70;;;24.50;;
1164;SDS011;571;50.930;6.926;2022-12-19T06:28:25;40.17;;;23.70;;
1164;SDS011;571;50.930;6.926;2022-12-19T06:30:54;37.20;;;23.50;;
1164;SDS011;571;50.930;6.926;2022-12-19T06:33:28;41.10;;;23.87;;
1164;SDS011;571;50.930;6.926;2022-12-19T06:35:56;37.67;;;21.80;;
1164;SDS011;571;50.930;6.926;2022-12-19T06:38:24;36.17;;;22.73;;
1164;SDS011;571;50.930;6.926;2022-12-19T06:40:50;37.00;;;23.87;;
1164;SDS011;571;50.930;6.926;2022-12-19T06:43:34;34.43;;;20.80;;
1164;SDS011;571;50.930;6.926;2022-12-19T06:46:01;37.70;;;25.00;;
1164;SDS011;571;50.930;6.926;2022-12-19T06:48:31;32.87;;;22.13;;
1164;SDS011;571;50.930;6.926;2022-12-19T06:51:01;40.70;;;26.33;;
1164;SDS011;571;50.930;6.926;2022-12-19T06:53:28;36.13;;;24.30;;
1164;SDS011;571;50.930;6.926;2022-12-19T06:55:56;38.77;;;25.00;;
1164;SDS011;571;50.930;6.926;2022-12-19T06:58:34;36.57;;;24.43;;
1164;SDS011;571;50.930;6.926;2022-12-19T07:01:20;32.83;;;22.63;;
1164;SDS011;571;50.930;6.926;2022-12-19T07:04:16;36.60;;;24.80;;
1164;SDS011;571;50.930;6.926;2022-12-19T07:10:13;34.20;;;22.87;;
1164;SDS011;571;50.930;6.926;2022-12-19T07:13:12;37.57;;;24.30;;
1164;SDS011;571;50.930;6.926;2022-12-19T07:22:12;33.43;;;22.70;;
1164;SDS011;571;50.930;6.926;2022-12-19T07:24:41;32.80;;;23.60;;
1164;SDS011;571;50.930;6.926;2022-12-19T07:27:17;33.70;;;23.60;;
1164;SDS011;571;50.930;6.926;2022-12-19T07:30:04;36.87;;;24.23;;
1164;SDS011;571;50.930;6.926;2022-12-19T07:32:55;40.40;;;24.30;;
1164;SDS011;571;50.930;6.926;2022-12-19T07:35:34;34.30;;;23.97;;
1164;SDS011;571;50.930;6.926;2022-12-19T07:38:05;34.47;;;22.97;;
1164;SDS011;571;50.930;6.926;2022-12-19T07:40:35;40.43;;;24.30;;
1164;SDS011;571;50.930;6.926;2022-12-19T07:43:02;36.67;;;23.83;;
1164;SDS011;571;50.930;6.926;2022-12-19T07:45:35;31.70;;;22.30;;
1164;SDS011;571;50.930;6.926;2022-12-19T07:48:03;38.03;;;23.30;;
1164;SDS011;571;50.930;6.926;2022-12-19T07:50:31;39.73;;;24.30;;
1164;SDS011;571;50.930;6.926;2022-12-19T07:53:00;39.17;;;25.87;;
1164;SDS011;571;50.930;6.926;2022-12-19T07:55:29;37.80;;;26.43;;
1164;SDS011;571;50.930;6.926;2022-12-19T07:57:55;37.97;;;25.60;;
1164;SDS011;571;50.930;6.926;2022-12-19T08:00:37;37.23;;;23.93;;
1164;SDS011;571;50.930;6.926;2022-12-19T08:03:05;36.57;;;24.70;;
1164;SDS011;571;50.930;6.926;2022-12-19T08:05:32;35.40;;;23.50;;
1164;SDS011;571;50.930;6.926;2022-12-19T08:07:59;33.60;;;24.90;;
1164;SDS011;571;50.930;6.926;2022-12-19T08:10:31;34.50;;;21.63;;
1164;SDS011;571;50.930;6.926;2022-12-19T08:13:01;35.93;;;24.17;;
1164;SDS011;571;50.930;6.926;2022-12-19T08:15:34;37.53;;;23.73;;
1164;SDS011;571;50.930;6.926;2022-12-19T08:18:08;44.67;;;24.20;;
1164;SDS011;571;50.930;6.926;2022-12-19T08:20:34;32.77;;;22.27;;
1164;SDS011;571;50.930;6.926;2022-12-19T08:23:01;39.20;;;23.50;;
1164;SDS011;571;50.930;6.926;2022-12-19T08:25:28;39.47;;;23.67;;
1164;SDS011;571;50.930;6.926;2022-12-19T08:27:56;35.83;;;23.17;;
1164;SDS011;571;50.930;6.926;2022-12-19T08:30:37;39.30;;;23.70;;
1164;SDS011;571;50.930;6.926;2022-12-19T08:33:05;29.97;;;24.47;;
1164;SDS011;571;50.930;6.926;2022-12-19T08:35:32;31.10;;;22.83;;
1164;SDS011;571;50.930;6.926;2022-12-19T08:38:07;37.03;;;24.73;;
1164;SDS011;571;50.930;6.926;2022-12-19T08:40:37;38.53;;;24.60;;
1164;SDS011;571;50.930;6.926;2022-12-19T08:43:36;35.53;;;23.57;;
1164;SDS011;571;50.930;6.926;2022-12-19T08:46:04;35.23;;;22.70;;
1164;SDS011;571;50.930;6.926;2022-12-19T08:51:21;41.13;;;24.57;;
1164;SDS011;571;50.930;6.926;2022-12-19T08:53:48;31.43;;;23.00;;
1164;SDS011;571;50.930;6.926;2022-12-19T08:56:16;36.47;;;23.17;;
1164;SDS011;571;50.930;6.926;2022-12-19T08:58:49;37.53;;;24.37;;
1164;SDS011;571;50.930;6.926;2022-12-19T09:01:30;32.70;;;22.80;;
1164;SDS011;571;50.930;6.926;2022-12-19T09:03:57;30.30;;;22.10;;
1164;SDS011;571;50.930;6.926;2022-12-19T09:06:25;35.23;;;21.80;;
1164;SDS011;571;50.930;6.926;2022-12-19T09:08:52;30.10;;;22.40;;
1164;SDS011;571;50.930;6.926;2022-12-19T09:11:19;33.20;;;22.40;;
1164;SDS011;571;50.930;6.926;2022-12-19T09:13:46;34.13;;;23.27;;
1164;SDS011;571;50.930;6.926;2022-12-19T09:16:16;39.93;;;23.30;;
1164;SDS011;571;50.930;6.926;2022-12-19T09:19:18;31.13;;;22.57;;
1164;SDS011;571;50.930;6.926;2022-12-19T09:21:51;38.10;;;23.97;;
1164;SDS011;571;50.930;6.926;2022-12-19T09:24:38;34.20;;;25.27;;
1164;SDS011;571;50.930;6.926;2022-12-19T09:30:01;34.77;;;23.10;;
1164;SDS011;571;50.930;6.926;2022-12-19T09:32:29;28.47;;;20.43;;
1164;SDS011;571;50.930;6.926;2022-12-19T09:34:56;36.03;;;23.37;;
1164;SDS011;571;50.930;6.926;2022-12-19T09:37:23;35.33;;;23.67;;
1164;SDS011;571;50.930;6.926;2022-12-19T09:39:49;40.67;;;24.77;;
1164;SDS011;571;50.930;6.926;2022-12-19T09:42:20;39.43;;;23.37;;
1164;SDS011;571;50.930;6.926;2022-12-19T09:45:10;31.47;;;22.23;;
1164;SDS011;571;50.930;6.926;2022-12-19T09:47:46;31.97;;;21.83;;
1164;SDS011;571;50.930;6.926;2022-12-19T09:50:18;29.20;;;21.80;;
1164;SDS011;571;50.930;6.926;2022-12-19T09:52:55;38.73;;;25.07;;
1164;SDS011;571;50.930;6.926;2022-12-19T09:55:40;39.27;;;24.53;;
1164;SDS011;571;50.930;6.926;2022-12-19T09:58:10;32.97;;;21.73;;
1164;SDS011;571;50.930;6.926;2022-12-19T10:00:43;32.80;;;22.47;;
1164;SDS011;571;50.930;6.926;2022-12-19T10:03:21;33.63;;;21.57;;
1164;SDS011;571;50.930;6.926;2022-12-19T10:06:25;37.40;;;25.83;;
1164;SDS011;571;50.930;6.926;2022-12-19T10:09:48;30.73;;;21.97;;
1164;SDS011;571;50.930;6.926;2022-12-19T10:12:25;38.97;;;23.60;;
1164;SDS011;571;50.930;6.926;2022-12-19T10:15:22;34.03;;;23.97;;
1164;SDS011;571;50.930;6.926;2022-12-19T10:18:16;30.33;;;22.33;;
1164;SDS011;571;50.930;6.926;2022-12-19T10:21:29;35.33;;;24.00;;
1164;SDS011;571;50.930;6.926;2022-12-19T10:24:35;33.50;;;24.17;;
1164;SDS011;571;50.930;6.926;2022-12-19T10:27:17;27.03;;;20.70;;
1164;SDS011;571;50.930;6.926;2022-12-19T10:29:55;34.43;;;23.23;;
1164;SDS011;571;50.930;6.926;2022-12-19T10:32:39;33.77;;;21.70;;
1164;SDS011;571;50.930;6.926;2022-12-19T10:35:28;32.80;;;22.20;;
1164;SDS011;571;50.930;6.926;2022-12-19T10:38:18;39.10;;;23.53;;
1164;SDS011;571;50.930;6.926;2022-12-19T10:40:51;37.03;;;23.40;;
1164;SDS011;571;50.930;6.926;2022-12-19T10:43:29;28.73;;;20.20;;
1164;SDS011;571;50.930;6.926;2022-12-19T10:46:17;34.43;;;23.70;;
1164;SDS011;571;50.930;6.926;2022-12-19T10:48:49;34.23;;;22.30;;
1164;SDS011;571;50.930;6.926;2022-12-19T10:51:21;36.87;;;21.17;;
1164;SDS011;571;50.930;6.926;2022-12-19T10:53:53;43.50;;;24.53;;
1164;SDS011;571;50.930;6.926;2022-12-19T10:56:21;34.10;;;24.00;;
1164;SDS011;571;50.930;6.926;2022-12-19T10:58:50;37.77;;;24.17;;
1164;SDS011;571;50.930;6.926;2022-12-19T11:01:22;36.13;;;22.40;;
1164;SDS011;571;50.930;6.926;2022-12-19T11:03:51;38.07;;;23.90;;
1164;SDS011;571;50.930;6.926;2022-12-19T11:06:41;36.17;;;22.63;;
1164;SDS011;571;50.930;6.926;2022-12-19T11:09:18;29.53;;;23.27;;
1164;SDS011;571;50.930;6.926;2022-12-19T11:11:55;35.27;;;21.70;;
1164;SDS011;571;50.930;6.926;2022-12-19T11:14:27;37.30;;;23.07;;
1164;SDS011;571;50.930;6.926;2022-12-19T11:16:56;28.10;;;20.23;;
1164;SDS011;571;50.930;6.926;2022-12-19T11:22:17;33.07;;;21.10;;
1164;SDS011;571;50.930;6.926;2022-12-19T11:24:48;30.47;;;21.23;;
1164;SDS011;571;50.930;6.926;2022-12-19T11:27:32;27.27;;;20.57;;
1164;SDS011;571;50.930;6.926;2022-12-19T11:30:19;32.67;;;21.00;;
1164;SDS011;571;50.930;6.926;2022-12-19T11:35:44;28.70;;;21.07;;
1164;SDS011;571;50.930;6.926;2022-12-19T11:38:15;32.40;;;23.07;;
1164;SDS011;571;50.930;6.926;2022-12-19T11:40:47;30.87;;;20.57;;
1164;SDS011;571;50.930;6.926;2022-12-19T11:43:25;27.33;;;18.70;;
1164;SDS011;571;50.930;6.926;2022-12-19T11:46:04;28.93;;;20.17;;
1164;SDS011;571;50.930;6.926;2022-12-19T11:48:40;31.40;;;20.10;;
1164;SDS011;571;50.930;6.926;2022-12-19T11:51:14;29.80;;;20.83;;
1164;SDS011;571;50.930;6.926;2022-12-19T11:57:04;31.37;;;17.60;;
1164;SDS011;571;50.930;6.926;2022-12-19T11:59:41;28.30;;;19.27;;
1164;SDS011;571;50.930;6.926;2022-12-19T12:02:23;28.00;;;18.93;;
1164;SDS011;571;50.930;6.926;2022-12-19T12:11:11;30.63;;;20.10;;
1164;SDS011;571;50.930;6.926;2022-12-19T12:13:59;27.20;;;19.07;;
1164;SDS011;571;50.930;6.926;2022-12-19T12:16:44;32.80;;;19.73;;
1164;SDS011;571;50.930;6.926;2022-12-19T12:19:26;31.10;;;20.70;;
1164;SDS011;571;50.930;6.926;2022-12-19T12:22:08;24.67;;;20.27;;
1164;SDS011;571;50.930;6.926;2022-12-19T12:24:44;29.23;;;19.53;;
1164;SDS011;571;50.930;6.926;2022-12-19T12:27:24;26.73;;;17.87;;
1164;SDS011;571;50.930;6.926;2022-12-19T12:30:02;24.53;;;17.47;;
1164;SDS011;571;50.930;6.926;2022-12-19T12:32:40;26.30;;;17.73;;
1164;SDS011;571;50.930;6.926;2022-12-19T12:35:26;27.23;;;18.53;;
1164;SDS011;571;50.930;6.926;2022-12-19T12:38:06;25.00;;;18.10;;
1164;SDS011;571;50.930;6.926;2022-12-19T12:41:00;24.70;;;18.83;;
1164;SDS011;571;50.930;6.926;2022-12-19T12:43:45;24.60;;;18.03;;
1164;SDS011;571;50.930;6.926;2022-12-19T12:46:27;27.07;;;18.17;;
1164;SDS011;571;50.930;6.926;2022-12-19T12:49:04;25.23;;;17.67;;
1164;SDS011;571;50.930;6.926;2022-12-19T12:51:48;23.00;;;17.60;;
1164;SDS011;571;50.930;6.926;2022-12-19T12:54:15;23.90;;;17.70;;
1164;SDS011;571;50.930;6.926;2022-12-19T12:56:42;23.10;;;17.20;;
1164;SDS011;571;50.930;6.926;2022-12-19T12:59:21;24.97;;;17.40;;
1164;SDS011;571;50.930;6.926;2022-12-19T13:01:50;27.57;;;18.60;;
1164;SDS011;571;50.930;6.926;2022-12-19T13:04:20;27.37;;;18.80;;
1164;SDS011;571;50.930;6.926;2022-12-19T13:07:12;27.13;;;18.07;;
1164;SDS011;571;50.930;6.926;2022-12-19T13:09:47;26.90;;;18.67;;
1164;SDS011;571;50.930;6.926;2022-12-19T13:12:24;21.83;;;16.20;;
1164;SDS011;571;50.930;6.926;2022-12-19T13:18:08;20.87;;;15.37;;
1164;SDS011;571;50.930;6.926;2022-12-19T13:20:59;22.70;;;16.10;;
1164;SDS011;571;50.930;6.926;2022-12-19T13:26:47;24.37;;;16.63;;
1164;SDS011;571;50.930;6.926;2022-12-19T13:29:26;18.30;;;14.40;;
1164;SDS011;571;50.930;6.926;2022-12-19T13:32:10;23.53;;;17.80;;
1164;SDS011;571;50.930;6.926;2022-12-19T13:34:39;20.37;;;14.70;;
1164;SDS011;571;50.930;6.926;2022-12-19T13:37:22;23.83;;;16.30;;
1164;SDS011;571;50.930;6.926;2022-12-19T13:40:05;22.97;;;16.80;;
1164;SDS011;571;50.930;6.926;2022-12-19T13:42:38;22.93;;;16.27;;
1164;SDS011;571;50.930;6.926;2022-12-19T13:45:33;19.10;;;15.37;;
1164;SDS011;571;50.930;6.926;2022-12-19T13:48:04;22.90;;;16.97;;
1164;SDS011;571;50.930;6.926;2022-12-19T13:50:37;24.10;;;16.87;;
1164;SDS011;571;50.930;6.926;2022-12-19T13:53:08;20.20;;;14.70;;
1164;SDS011;571;50.930;6.926;2022-12-19T13:55:39;30.87;;;18.63;;
1164;SDS011;571;50.930;6.926;2022-12-19T13:58:06;28.43;;;17.40;;
1164;SDS011;571;50.930;6.926;2022-12-19T14:00:47;28.17;;;16.33;;
1164;SDS011;571;50.930;6.926;2022-12-19T14:03:17;24.60;;;17.17;;
1164;SDS011;571;50.930;6.926;2022-12-19T14:05:47;25.83;;;16.67;;
1164;SDS011;571;50.930;6.926;2022-12-19T14:08:15;27.53;;;16.70;;
1164;SDS011;571;50.930;6.926;2022-12-19T14:10:45;22.13;;;15.73;;
1164;SDS011;571;50.930;6.926;2022-12-19T14:13:15;22.60;;;17.40;;
1164;SDS011;571;50.930;6.926;2022-12-19T14:16:06;23.53;;;16.60;;
1164;SDS011;571;50.930;6.926;2022-12-19T14:18:45;22.10;;;16.17;;
1164;SDS011;571;50.930;6.926;2022-12-19T14:21:14;22.47;;;16.67;;
1164;SDS011;571;50.930;6.926;2022-12-19T14:23:43;26.47;;;16.80;;
1164;SDS011;571;50.930;6.926;2022-12-19T14:26:11;22.10;;;17.37;;
1164;SDS011;571;50.930;6.926;2022-12-19T14:28:50;21.53;;;16.73;;
1164;SDS011;571;50.930;6.926;2022-12-19T14:31:20;23.03;;;16.80;;
1164;SDS011;571;50.930;6.926;2022-12-19T14:33:49;22.00;;;14.80;;
1164;SDS011;571;50.930;6.926;2022-12-19T14:36:19;20.13;;;15.23;;
1164;SDS011;571;50.930;6.926;2022-12-19T14:38:47;22.13;;;16.30;;
1164;SDS011;571;50.930;6.926;2022-12-19T14:41:18;21.67;;;16.73;;
1164;SDS011;571;50.930;6.926;2022-12-19T14:44:12;22.17;;;15.00;;
1164;SDS011;571;50.930;6.926;2022-12-19T14:46:42;26.27;;;15.70;;
1164;SDS011;571;50.930;6.926;2022-12-19T14:49:25;21.10;;;15.73;;
1164;SDS011;571;50.930;6.926;2022-12-19T14:51:56;19.63;;;15.70;;
1164;SDS011;571;50.930;6.926;2022-12-19T14:54:25;24.37;;;14.90;;
1164;SDS011;571;50.930;6.926;2022-12-19T14:56:52;21.37;;;14.67;;
1164;SDS011;571;50.930;6.926;2022-12-19T14:59:28;17.63;;;13.43;;
1164;SDS011;571;50.930;6.926;2022-12-19T15:02:00;19.07;;;12.87;;
1164;SDS011;571;50.930;6.926;2022-12-19T15:04:38;17.27;;;13.20;;
1164;SDS011;571;50.930;6.926;2022-12-19T15:07:07;17.87;;;13.80;;
1164;SDS011;571;50.930;6.926;2022-12-19T15:09:44;14.87;;;12.17;;
1164;SDS011;571;50.930;6.926;2022-12-19T15:12:24;17.60;;;12.97;;
1164;SDS011;571;50.930;6.926;2022-12-19T15:15:17;17.50;;;12.60;;
1164;SDS011;571;50.930;6.926;2022-12-19T15:17:47;15.13;;;11.57;;
1164;SDS011;571;50.930;6.926;2022-12-19T15:20:16;12.87;;;10.43;;
1164;SDS011;571;50.930;6.926;2022-12-19T15:22:43;18.03;;;13.50;;
1164;SDS011;571;50.930;6.926;2022-12-19T15:25:12;15.60;;;12.50;;
1164;SDS011;571;50.930;6.926;2022-12-19T15:27:41;15.90;;;12.10;;
1164;SDS011;571;50.930;6.926;2022-12-19T15:30:11;14.60;;;10.67;;
1164;SDS011;571;50.930;6.926;2022-12-19T15:32:41;15.00;;;10.43;;
1164;SDS011;571;50.930;6.926;2022-12-19T15:35:10;16.47;;;10.83;;
1164;SDS011;571;50.930;6.926;2022-12-19T15:37:39;17.20;;;12.40;;
1164;SDS011;571;50.930;6.926;2022-12-19T15:40:11;14.03;;;11.37;;
1164;SDS011;571;50.930;6.926;2022-12-19T15:42:40;12.83;;;9.93;;
1164;SDS011;571;50.930;6.926;2022-12-19T15:45:11;21.33;;;12.33;;
1164;SDS011;571;50.930;6.926;2022-12-19T15:47:40;16.10;;;12.20;;
1164;SDS011;571;50.930;6.926;2022-12-19T15:50:13;15.90;;;11.17;;
1164;SDS011;571;50.930;6.926;2022-12-19T15:52:46;12.07;;;10.40;;
1164;SDS011;571;50.930;6.926;2022-12-19T15:55:14;19.83;;;11.90;;
1164;SDS011;571;50.930;6.926;2022-12-19T15:57:43;11.97;;;9.20;;
1164;SDS011;571;50.930;6.926;2022-12-19T16:00:15;14.20;;;12.90;;
1164;SDS011;571;50.930;6.926;2022-12-19T16:02:43;15.73;;;10.87;;
1164;SDS011;571;50.930;6.926;2022-12-19T16:05:12;17.40;;;11.53;;
1164;SDS011;571;50.930;6.926;2022-12-19T16:07:39;13.53;;;10.33;;
1164;SDS011;571;50.930;6.926;2022-12-19T16:10:09;15.03;;;11.00;;
1164;SDS011;571;50.930;6.926;2022-12-19T16:12:41;10.80;;;9.70;;
1164;SDS011;571;50.930;6.926;2022-12-19T16:15:19;15.37;;;12.00;;
1164;SDS011;571;50.930;6.926;2022-12-19T16:17:50;13.53;;;11.23;;
1164;SDS011;571;50.930;6.926;2022-12-19T16:20:20;13.70;;;10.90;;
1164;SDS011;571;50.930;6.926;2022-12-19T16:22:57;17.73;;;10.63;;
1164;SDS011;571;50.930;6.926;2022-12-19T16:25:32;13.30;;;10.33;;
1164;SDS011;571;50.930;6.926;2022-12-19T16:28:03;16.77;;;10.80;;
1164;SDS011;571;50.930;6.926;2022-12-19T16:30:35;12.77;;;10.67;;
1164;SDS011;571;50.930;6.926;2022-12-19T16:33:04;16.40;;;11.83;;
1164;SDS011;571;50.930;6.926;2022-12-19T16:35:46;15.70;;;11.33;;
1164;SDS011;571;50.930;6.926;2022-12-19T16:38:13;14.47;;;11.27;;
1164;SDS011;571;50.930;6.926;2022-12-19T16:40:42;13.50;;;11.10;;
1164;SDS011;571;50.930;6.926;2022-12-19T16:43:11;13.23;;;10.57;;
1164;SDS011;571;50.930;6.926;2022-12-19T16:45:41;14.33;;;10.73;;
1164;SDS011;571;50.930;6.926;2022-12-19T16:48:18;15.23;;;12.40;;
1164;SDS011;571;50.930;6.926;2022-12-19T16:50:46;15.57;;;11.70;;
1164;SDS011;571;50.930;6.926;2022-12-19T16:53:13;17.27;;;11.93;;
1164;SDS011;571;50.930;6.926;2022-12-19T16:55:42;14.90;;;11.10;;
1164;SDS011;571;50.930;6.926;2022-12-19T16:58:10;16.13;;;11.03;;
1164;SDS011;571;50.930;6.926;2022-12-19T17:00:41;15.70;;;12.03;;
1164;SDS011;571;50.930;6.926;2022-12-19T17:05:36;12.90;;;9.80;;
1164;SDS011;571;50.930;6.926;2022-12-19T17:08:05;15.90;;;12.43;;
1164;SDS011;571;50.930;6.926;2022-12-19T17:10:36;12.10;;;10.70;;
1164;SDS011;571;50.930;6.926;2022-12-19T17:13:08;15.77;;;11.90;;
1164;SDS011;571;50.930;6.926;2022-12-19T17:15:36;17.70;;;12.33;;
1164;SDS011;571;50.930;6.926;2022-12-19T17:18:05;12.57;;;10.37;;
1164;SDS011;571;50.930;6.926;2022-12-19T17:20:38;15.27;;;11.40;;
1164;SDS011;571;50.930;6.926;2022-12-19T17:23:10;11.43;;;10.20;;
1164;SDS011;571;50.930;6.926;2022-12-19T17:25:40;14.17;;;12.10;;
1164;SDS011;571;50.930;6.926;2022-12-19T17:28:08;12.47;;;10.20;;
1164;SDS011;571;50.930;6.926;2022-12-19T17:30:35;11.10;;;10.00;;
1164;SDS011;571;50.930;6.926;2022-12-19T17:33:02;20.00;;;13.90;;
1164;SDS011;571;50.930;6.926;2022-12-19T17:35:30;21.03;;;12.07;;
1164;SDS011;571;50.930;6.926;2022-12-19T17:38:00;13.00;;;9.97;;
1164;SDS011;571;50.930;6.926;2022-12-19T17:40:28;10.53;;;9.17;;
1164;SDS011;571;50.930;6.926;2022-12-19T17:42:57;11.93;;;9.83;;
1164;SDS011;571;50.930;6.926;2022-12-19T17:45:26;13.80;;;10.60;;
1164;SDS011;571;50.930;6.926;2022-12-19T17:47:54;13.33;;;11.93;;
1164;SDS011;571;50.930;6.926;2022-12-19T17:50:24;12.37;;;10.23;;
1164;SDS011;571;50.930;6.926;2022-12-19T17:52:53;11.63;;;10.43;;
1164;SDS011;571;50.930;6.926;2022-12-19T17:55:22;13.10;;;10.73;;
1164;SDS011;571;50.930;6.926;2022-12-19T17:57:50;13.40;;;11.57;;
1164;SDS011;571;50.930;6.926;2022-12-19T18:00:18;11.67;;;9.90;;
1164;SDS011;571;50.930;6.926;2022-12-19T18:02:48;15.50;;;11.67;;
1164;SDS011;571;50.930;6.926;2022-12-19T18:05:17;12.67;;;10.90;;
1164;SDS011;571;50.930;6.926;2022-12-19T18:07:46;15.10;;;11.87;;
1164;SDS011;571;50.930;6.926;2022-12-19T18:10:13;15.23;;;11.87;;
1164;SDS011;571;50.930;6.926;2022-12-19T18:12:41;11.73;;;10.50;;
1164;SDS011;571;50.930;6.926;2022-12-19T18:15:08;11.47;;;10.00;;
1164;SDS011;571;50.930;6.926;2022-12-19T18:17:37;10.50;;;9.40;;
1164;SDS011;571;50.930;6.926;2022-12-19T18:20:14;12.13;;;10.10;;
1164;SDS011;571;50.930;6.926;2022-12-19T18:22:44;10.67;;;9.43;;
1164;SDS011;571;50.930;6.926;2022-12-19T18:25:15;12.73;;;10.20;;
1164;SDS011;571;50.930;6.926;2022-12-19T18:27:43;15.57;;;11.00;;
1164;SDS011;571;50.930;6.926;2022-12-19T18:30:12;13.27;;;10.57;;
1164;SDS011;571;50.930;6.926;2022-12-19T18:32:40;12.30;;;10.90;;
1164;SDS011;571;50.930;6.926;2022-12-19T18:35:13;13.27;;;11.23;;
1164;SDS011;571;50.930;6.926;2022-12-19T18:37:43;10.83;;;9.07;;
1164;SDS011;571;50.930;6.926;2022-12-19T18:40:14;13.13;;;9.83;;
1164;SDS011;571;50.930;6.926;2022-12-19T18:42:41;15.13;;;10.30;;
1164;SDS011;571;50.930;6.926;2022-12-19T18:45:12;13.60;;;10.67;;
1164;SDS011;571;50.930;6.926;2022-12-19T18:47:40;13.17;;;10.00;;
1164;SDS011;571;50.930;6.926;2022-12-19T18:50:14;11.60;;;9.83;;
1164;SDS011;571;50.930;6.926;2022-12-19T18:52:42;21.67;;;11.90;;
1164;SDS011;571;50.930;6.926;2022-12-19T18:55:13;12.67;;;10.00;;
1164;SDS011;571;50.930;6.926;2022-12-19T18:57:41;10.47;;;9.43;;
1164;SDS011;571;50.930;6.926;2022-12-19T19:00:09;12.53;;;10.07;;
1164;SDS011;571;50.930;6.926;2022-12-19T19:02:37;13.00;;;9.30;;
1164;SDS011;571;50.930;6.926;2022-12-19T19:05:09;11.73;;;8.83;;
1164;SDS011;571;50.930;6.926;2022-12-19T19:07:41;16.07;;;10.20;;
1164;SDS011;571;50.930;6.926;2022-12-19T19:10:20;13.50;;;9.40;;
1164;SDS011;571;50.930;6.926;2022-12-19T19:12:49;10.37;;;9.30;;
1164;SDS011;571;50.930;6.926;2022-12-19T19:15:17;15.60;;;11.47;;
1164;SDS011;571;50.930;6.926;2022-12-19T19:17:46;10.77;;;8.20;;
1164;SDS011;571;50.930;6.926;2022-12-19T19:20:16;8.77;;;7.40;;
1164;SDS011;571;50.930;6.926;2022-12-19T19:22:44;11.10;;;8.17;;
1164;SDS011;571;50.930;6.926;2022-12-19T19:25:11;10.80;;;8.60;;
1164;SDS011;571;50.930;6.926;2022-12-19T19:27:38;9.97;;;7.37;;
1164;SDS011;571;50.930;6.926;2022-12-19T19:30:07;8.43;;;6.83;;
1164;SDS011;571;50.930;6.926;2022-12-19T19:32:35;9.63;;;7.00;;
1164;SDS011;571;50.930;6.926;2022-12-19T19:35:04;7.37;;;5.67;;
1164;SDS011;571;50.930;6.926;2022-12-19T19:37:35;10.63;;;7.37;;
1164;SDS011;571;50.930;6.926;2022-12-19T19:40:03;9.33;;;6.00;;
1164;SDS011;571;50.930;6.926;2022-12-19T19:42:31;8.20;;;7.40;;
1164;SDS011;571;50.930;6.926;2022-12-19T19:44:58;8.17;;;6.20;;
1164;SDS011;571;50.930;6.926;2022-12-19T19:47:25;7.20;;;5.60;;
1164;SDS011;571;50.930;6.926;2022-12-19T19:49:53;8.00;;;7.20;;
1164;SDS011;571;50.930;6.926;2022-12-19T19:52:21;6.90;;;6.10;;
1164;SDS011;571;50.930;6.926;2022-12-19T19:54:49;8.60;;;6.50;;
1164;SDS011;571;50.930;6.926;2022-12-19T19:57:24;9.03;;;6.67;;
1164;SDS011;571;50.930;6.926;2022-12-19T19:59:51;12.57;;;8.30;;
1164;SDS011;571;50.930;6.926;2022-12-19T20:02:18;9.27;;;7.77;;